createdAt,value
2023-02-12T00:00:00.284Z,100496.35
2023-02-12T00:02:27.419Z,100484.27
2023-02-12T00:04:54.273Z,100489.80
2023-02-12T00:07:21.089Z,100485.64
2023-02-12T00:09:47.908Z,100481.84
2023-02-12T00:12:15.916Z,100482.24
2023-02-12T00:14:42.861Z,100477.77
2023-02-12T00:17:10.831Z,100476.06
2023-02-12T00:19:38.184Z,100472.30
2023-02-12T00:22:04.929Z,100468.52
2023-02-12T00:24:31.974Z,100472.40
2023-02-12T00:26:58.740Z,100466.88
2023-02-12T00:29:25.767Z,100469.21
2023-02-12T00:31:52.759Z,100468.27
2023-02-12T00:34:19.622Z,100460.95
2023-02-12T00:36:47.418Z,100455.51
2023-02-12T00:39:14.071Z,100456.84
2023-02-12T00:41:41.515Z,100443.56
2023-02-12T00:44:09.150Z,100437.84
2023-02-12T00:46:35.899Z,100436.29
2023-02-12T00:49:02.773Z,100436.63
2023-02-12T00:51:30.018Z,100430.95
2023-02-12T00:53:59.138Z,100432.59
2023-02-12T00:56:26.705Z,100426.21
2023-02-12T00:58:53.618Z,100421.54
2023-02-12T01:01:20.649Z,100420.65
2023-02-12T01:03:47.816Z,100417.14
2023-02-12T01:06:14.641Z,100410.70
2023-02-12T01:08:42.735Z,100412.34
2023-02-12T01:11:11.751Z,100410.80
2023-02-12T01:13:43.699Z,100408.06
2023-02-12T01:16:15.897Z,100403.48
2023-02-12T01:18:42.810Z,100399.86
2023-02-12T01:21:15.696Z,100394.16
2023-02-12T01:23:42.420Z,100396.77
2023-02-12T01:26:12.365Z,100395.89
2023-02-12T01:28:40.529Z,100391.23
2023-02-12T01:31:13.524Z,100389.02
2023-02-12T01:33:41.032Z,100385.80
2023-02-12T01:36:09.040Z,100386.57
2023-02-12T01:38:37.128Z,100386.80
2023-02-12T01:41:11.022Z,100389.70
2023-02-12T01:43:39.915Z,100388.65
2023-02-12T01:46:08.363Z,100387.05
2023-02-12T01:48:41.605Z,100382.94
2023-02-12T01:51:10.174Z,100381.55
2023-02-12T01:53:42.661Z,100382.47
2023-02-12T01:56:09.592Z,100380.55
2023-02-12T01:58:38.632Z,100376.24
2023-02-12T02:01:06.969Z,100377.11
2023-02-12T02:03:35.838Z,100377.64
2023-02-12T02:06:13.770Z,100377.99
2023-02-12T02:08:40.814Z,100381.15
2023-02-12T02:11:36.638Z,100378.63
2023-02-12T02:14:24.579Z,100378.96
2023-02-12T02:17:29.434Z,100379.83
2023-02-12T02:20:15.231Z,100378.95
2023-02-12T02:23:04.309Z,100380.48
2023-02-12T02:25:41.440Z,100380.33
2023-02-12T02:28:26.453Z,100379.71
2023-02-12T02:31:05.187Z,100379.38
2023-02-12T02:33:59.764Z,100374.91
2023-02-12T02:36:45.348Z,100377.95
2023-02-12T02:39:39.091Z,100374.16
2023-02-12T02:42:24.666Z,100378.63
2023-02-12T02:45:16.393Z,100378.09
2023-02-12T02:47:57.686Z,100376.52
2023-02-12T02:50:25.652Z,100378.92
2023-02-12T02:53:01.223Z,100381.86
2023-02-12T02:55:30.393Z,100381.73
2023-02-12T02:58:02.454Z,100376.20
2023-02-12T03:00:50.251Z,100373.29
2023-02-12T03:03:28.881Z,100369.19
2023-02-12T03:06:10.770Z,100368.29
2023-02-12T03:08:53.861Z,100363.80
2023-02-12T03:11:31.164Z,100365.71
2023-02-12T03:14:13.838Z,100363.64
2023-02-12T03:16:54.407Z,100367.23
2023-02-12T03:19:25.481Z,100370.30
2023-02-12T03:21:57.106Z,100374.61
2023-02-12T03:24:32.362Z,100372.64
2023-02-12T03:27:17.151Z,100374.36
2023-02-12T03:29:44.038Z,100369.12
2023-02-12T03:32:32.727Z,100372.84
2023-02-12T03:35:05.687Z,100377.97
2023-02-12T03:38:00.799Z,100376.02
2023-02-12T03:40:37.196Z,100374.91
2023-02-12T03:43:36.781Z,100377.46
2023-02-12T03:46:18.816Z,100377.02
2023-02-12T03:48:54.247Z,100371.77
2023-02-12T03:51:40.869Z,100376.70
2023-02-12T03:54:08.916Z,100379.04
2023-02-12T03:56:52.474Z,100381.59
2023-02-12T03:59:20.710Z,100382.02
2023-02-12T04:01:48.913Z,100387.11
2023-02-12T04:04:15.757Z,100392.05
2023-02-12T04:06:44.849Z,100392.58
2023-02-12T04:09:11.561Z,100391.73
2023-02-12T04:11:54.500Z,100393.23
2023-02-12T04:14:49.514Z,100400.14
2023-02-12T04:25:28.571Z,100410.41
2023-02-12T04:28:00.878Z,100411.75
2023-02-12T04:30:32.501Z,100416.34
2023-02-12T04:33:06.016Z,100418.73
2023-02-12T04:35:36.372Z,100426.66
2023-02-12T04:38:12.076Z,100431.14
2023-02-12T04:40:40.692Z,100428.67
2023-02-12T04:43:08.680Z,100439.52
2023-02-12T04:45:37.802Z,100441.37
2023-02-12T04:48:06.042Z,100444.55
2023-02-12T04:50:41.973Z,100451.38
2023-02-12T04:53:11.395Z,100457.52
2023-02-12T04:55:40.065Z,100461.92
2023-02-12T04:58:08.238Z,100464.58
2023-02-12T05:00:36.791Z,100470.89
2023-02-12T05:03:05.400Z,100472.16
2023-02-12T05:05:34.693Z,100475.52
2023-02-12T05:08:03.919Z,100477.73
2023-02-12T05:10:32.577Z,100484.06
2023-02-12T05:13:06.880Z,100491.97
2023-02-12T05:15:35.942Z,100509.75
2023-02-12T05:18:04.581Z,100499.17
2023-02-12T05:20:33.829Z,100526.66
2023-02-12T05:23:02.773Z,100534.55
2023-02-12T05:25:32.193Z,100545.27
2023-02-12T05:28:00.531Z,100550.22
2023-02-12T05:30:28.659Z,100556.16
2023-02-12T05:32:56.792Z,100574.15
2023-02-12T05:35:24.767Z,100579.72
2023-02-12T05:37:52.897Z,100589.31
2023-02-12T05:40:22.099Z,100589.67
2023-02-12T05:42:50.194Z,100604.73
2023-02-12T05:45:18.117Z,100610.85
2023-02-12T05:47:46.204Z,100614.66
2023-02-12T05:50:14.263Z,100623.44
2023-02-12T05:52:43.076Z,100630.29
2023-02-12T05:55:11.492Z,100634.71
2023-02-12T05:57:40.153Z,100641.23
2023-02-12T06:00:10.961Z,100651.69
2023-02-12T06:02:42.181Z,100662.27
2023-02-12T06:05:10.295Z,100670.80
2023-02-12T06:07:38.807Z,100674.31
2023-02-12T06:10:07.758Z,100683.02
2023-02-12T06:12:37.000Z,100680.98
2023-02-12T06:15:06.101Z,100676.53
2023-02-12T06:17:34.858Z,100686.05
2023-02-12T06:20:02.852Z,100690.24
2023-02-12T06:22:31.087Z,100690.63
2023-02-12T06:25:00.743Z,100700.85
2023-02-12T06:27:28.805Z,100699.41
2023-02-12T06:29:56.728Z,100700.19
2023-02-12T06:32:25.635Z,100705.94
2023-02-12T06:34:53.859Z,100714.62
2023-02-12T06:37:24.233Z,100715.93
2023-02-12T06:39:52.245Z,100722.39
2023-02-12T06:42:20.879Z,100719.83
2023-02-12T06:44:51.353Z,100718.83
2023-02-12T06:47:20.645Z,100726.85
2023-02-12T06:49:49.090Z,100735.95
2023-02-12T06:52:21.290Z,100738.85
2023-02-12T06:54:49.478Z,100743.27
2023-02-12T06:57:17.452Z,100743.38
2023-02-12T06:59:45.979Z,100746.82
2023-02-12T07:02:14.354Z,100752.31
2023-02-12T07:04:42.414Z,100750.14
2023-02-12T07:07:10.835Z,100757.25
2023-02-12T07:09:40.524Z,100759.48
2023-02-12T07:12:08.485Z,100767.27
2023-02-12T07:14:37.127Z,100774.31
2023-02-12T07:17:05.600Z,100777.41
2023-02-12T07:19:33.671Z,100784.97
2023-02-12T07:22:01.771Z,100785.14
2023-02-12T07:24:29.979Z,100786.44
2023-02-12T07:26:58.851Z,100789.09
2023-02-12T07:29:26.856Z,100790.21
2023-02-12T07:31:54.835Z,100802.21
2023-02-12T07:34:22.780Z,100800.77
2023-02-12T07:36:50.928Z,100796.67
2023-02-12T07:39:20.156Z,100810.20
2023-02-12T07:41:48.271Z,100811.27
2023-02-12T07:44:16.280Z,100812.50
2023-02-12T07:46:48.325Z,100812.70
2023-02-12T07:49:21.569Z,100821.20
2023-02-12T07:51:50.205Z,100821.97
2023-02-12T07:54:18.687Z,100819.20
2023-02-12T07:56:47.314Z,100820.27
2023-02-12T07:59:17.417Z,100828.33
2023-02-12T08:01:49.704Z,100834.25
2023-02-12T08:04:20.648Z,100854.52
2023-02-12T08:06:50.123Z,100850.52
2023-02-12T08:09:20.322Z,100864.34
2023-02-12T08:11:48.536Z,100870.54
2023-02-12T08:14:18.378Z,100878.52
2023-02-12T08:16:47.928Z,100882.98
2023-02-12T08:19:21.187Z,100889.72
2023-02-12T08:21:52.996Z,100897.41
2023-02-12T08:24:24.169Z,100908.94
2023-02-12T08:26:52.235Z,100908.16
2023-02-12T08:29:22.884Z,100920.95
2023-02-12T08:32:00.631Z,100924.59
2023-02-12T08:34:31.616Z,100926.66
2023-02-12T08:37:06.942Z,100930.93
2023-02-12T08:39:34.943Z,100934.77
2023-02-12T08:42:04.502Z,100934.64
2023-02-12T08:44:33.018Z,100940.88
2023-02-12T08:47:02.864Z,100935.30
2023-02-12T08:49:30.988Z,100939.25
2023-02-12T08:51:59.642Z,100943.66
2023-02-12T08:54:30.583Z,100949.56
2023-02-12T08:57:00.393Z,100951.94
2023-02-12T08:59:29.689Z,100945.55
2023-02-12T09:02:01.197Z,100940.27
2023-02-12T09:04:30.367Z,100943.26
2023-02-12T09:06:59.627Z,100939.86
2023-02-12T09:09:27.908Z,100941.06
2023-02-12T09:11:55.931Z,100941.08
2023-02-12T09:14:24.944Z,100944.35
2023-02-12T09:16:53.703Z,100946.98
2023-02-12T09:19:22.263Z,100939.30
2023-02-12T09:21:54.711Z,100947.52
2023-02-12T09:24:24.705Z,100950.04
2023-02-12T09:26:52.735Z,100950.02
2023-02-12T09:29:21.021Z,100943.56
2023-02-12T09:31:49.234Z,100949.80
2023-02-12T09:34:17.580Z,100957.00
2023-02-12T09:36:45.597Z,100961.67
2023-02-12T09:39:13.680Z,100961.80
2023-02-12T09:42:00.770Z,100959.28
2023-02-12T09:44:54.669Z,100961.54
2023-02-12T09:47:44.451Z,100975.73
2023-02-12T09:50:37.614Z,100976.46
2023-02-12T09:53:06.268Z,100980.40
2023-02-12T09:55:35.295Z,100980.81
2023-02-12T09:58:07.446Z,100989.40
2023-02-12T10:00:35.600Z,100988.48
2023-02-12T10:03:05.689Z,101010.45
2023-02-12T10:05:47.886Z,100995.03
2023-02-12T10:08:41.133Z,100997.39
2023-02-12T10:11:34.311Z,101003.58
2023-02-12T10:14:14.764Z,101009.32
2023-02-12T10:16:47.229Z,101013.76
2023-02-12T10:19:29.163Z,101007.65
2023-02-12T10:22:28.418Z,101014.06
2023-02-12T10:25:08.243Z,101019.46
2023-02-12T10:27:43.938Z,101024.83
2023-02-12T10:30:40.952Z,101021.82
2023-02-12T10:33:39.132Z,101027.77
2023-02-12T10:36:12.287Z,101032.92
2023-02-12T10:38:40.435Z,101032.27
2023-02-12T10:41:10.876Z,101032.36
2023-02-12T10:43:39.142Z,101025.02
2023-02-12T10:46:09.178Z,101032.43
2023-02-12T10:48:38.990Z,101037.91
2023-02-12T10:51:10.123Z,101028.57
2023-02-12T10:53:40.438Z,101028.95
2023-02-12T10:56:12.051Z,101027.92
2023-02-12T10:58:51.011Z,101037.09
2023-02-12T11:01:26.268Z,101028.72
2023-02-12T11:03:55.722Z,101038.96
2023-02-12T11:06:30.367Z,101036.91
2023-02-12T11:08:58.943Z,101038.83
2023-02-12T11:11:31.330Z,101043.19
2023-02-12T11:14:00.704Z,101042.59
2023-02-12T11:16:30.698Z,101046.38
2023-02-12T11:19:06.174Z,101033.42
2023-02-12T11:21:35.945Z,101038.06
2023-02-12T11:24:26.087Z,101036.73
2023-02-12T11:27:16.412Z,101045.82
2023-02-12T11:29:49.788Z,101049.30
2023-02-12T11:32:19.285Z,101041.04
2023-02-12T11:35:18.386Z,101037.92
2023-02-12T11:37:46.893Z,101038.43
2023-02-12T11:40:31.473Z,101041.05
2023-02-12T11:43:01.830Z,101031.61
2023-02-12T11:45:35.512Z,101035.58
2023-02-12T11:48:04.151Z,101038.45
2023-02-12T11:50:32.813Z,101041.11
2023-02-12T11:53:03.603Z,101037.20
2023-02-12T11:55:33.742Z,101045.16
2023-02-12T11:58:15.841Z,101049.57
2023-02-12T12:00:52.247Z,101049.77
2023-02-12T12:03:30.789Z,101054.77
2023-02-12T12:06:35.891Z,101061.70
2023-02-12T12:09:31.995Z,101063.98
2023-02-12T12:12:11.471Z,101063.16
2023-02-12T12:15:08.056Z,101070.77
2023-02-12T12:18:06.371Z,101064.19
2023-02-12T12:20:43.996Z,101063.78
2023-02-12T12:23:25.282Z,101063.59
2023-02-12T12:25:56.279Z,101055.96
2023-02-12T12:28:31.541Z,101064.58
2023-02-12T12:31:12.416Z,101068.01
2023-02-12T12:33:46.487Z,101070.69
2023-02-12T12:36:34.038Z,101074.36
2023-02-12T12:39:23.964Z,101077.20
2023-02-12T12:42:08.822Z,101076.40
2023-02-12T12:44:47.291Z,101080.09
2023-02-12T12:47:27.008Z,101073.73
2023-02-12T12:49:56.277Z,101078.64
2023-02-12T12:52:46.796Z,101082.07
2023-02-12T12:55:25.424Z,101087.16
2023-02-12T12:58:04.403Z,101088.04
2023-02-12T13:00:55.738Z,101092.73
2023-02-12T13:03:43.957Z,101092.98
2023-02-12T13:06:23.249Z,101103.63
2023-02-12T13:09:03.971Z,101104.27
2023-02-12T13:12:12.956Z,101112.70
2023-02-12T13:15:36.652Z,101120.73
2023-02-12T13:18:46.702Z,101116.48
2023-02-12T13:21:42.862Z,101114.27
2023-02-12T13:24:39.332Z,101111.80
2023-02-12T13:27:34.348Z,101119.33
2023-02-12T13:30:32.827Z,101115.03
2023-02-12T13:33:26.933Z,101112.16
2023-02-12T13:36:01.989Z,101119.23
2023-02-12T13:39:13.782Z,101132.63
2023-02-12T13:41:48.817Z,101135.91
2023-02-12T13:44:41.803Z,101139.35
2023-02-12T13:47:43.406Z,101142.91
2023-02-12T13:50:38.961Z,101146.40
2023-02-12T13:53:16.859Z,101147.67
2023-02-12T13:56:28.053Z,101146.13
2023-02-12T13:59:02.846Z,101152.86
2023-02-12T14:01:47.106Z,101155.29
2023-02-12T14:11:51.769Z,101173.14
2023-02-12T14:14:47.065Z,101176.16
2023-02-12T14:17:28.282Z,101182.56
2023-02-12T14:20:09.114Z,101184.14
2023-02-12T14:22:44.057Z,101185.62
2023-02-12T14:25:15.041Z,101190.91
2023-02-12T14:27:55.182Z,101186.84
2023-02-12T14:30:31.222Z,101193.98
2023-02-12T14:33:11.409Z,101192.84
2023-02-12T14:35:40.940Z,101198.55
2023-02-12T14:38:09.489Z,101207.08
2023-02-12T14:40:42.835Z,101208.13
2023-02-12T14:43:32.150Z,101217.35
2023-02-12T14:46:22.295Z,101220.82
2023-02-12T14:48:52.018Z,101225.34
2023-02-12T14:51:41.028Z,101226.88
2023-02-12T14:54:37.970Z,101237.60
2023-02-12T14:57:08.798Z,101235.23
2023-02-12T14:59:40.281Z,101236.10
2023-02-12T15:02:09.484Z,101242.67
2023-02-12T15:04:38.328Z,101248.75
2023-02-12T15:07:12.413Z,101252.26
2023-02-12T15:10:10.846Z,101258.65
2023-02-12T15:13:27.161Z,101262.14
2023-02-12T15:16:23.635Z,101268.91
2023-02-12T15:19:23.444Z,101267.56
2023-02-12T15:21:54.651Z,101272.78
2023-02-12T15:24:25.297Z,101274.52
2023-02-12T15:26:58.303Z,101278.33
2023-02-12T15:29:39.399Z,101279.87
2023-02-12T15:32:09.929Z,101287.48
2023-02-12T15:34:43.071Z,101293.17
2023-02-12T15:37:42.063Z,101288.35
2023-02-12T15:40:14.544Z,101298.52
2023-02-12T15:43:17.221Z,101299.22
2023-02-12T15:45:51.282Z,101305.79
2023-02-12T15:48:21.773Z,101311.54
2023-02-12T15:50:54.343Z,101308.61
2023-02-12T15:53:26.290Z,101314.31
2023-02-12T15:55:54.892Z,101316.57
2023-02-12T15:58:38.333Z,101322.11
2023-02-12T16:01:07.732Z,101330.58
2023-02-12T16:03:37.475Z,101332.98
2023-02-12T16:06:06.250Z,101339.89
2023-02-12T16:08:35.932Z,101338.50
2023-02-12T16:11:14.111Z,101343.51
2023-02-12T16:13:45.599Z,101344.56
2023-02-12T16:16:14.733Z,101351.80
2023-02-12T16:18:44.095Z,101352.49
2023-02-12T16:21:18.149Z,101358.31
2023-02-12T16:23:48.022Z,101365.00
2023-02-12T16:26:21.424Z,101371.92
2023-02-12T16:28:51.262Z,101372.29
2023-02-12T16:31:19.474Z,101376.85
2023-02-12T16:33:49.817Z,101374.32
2023-02-12T16:36:24.495Z,101385.95
2023-02-12T16:39:00.112Z,101388.39
2023-02-12T16:41:32.580Z,101395.50
2023-02-12T16:44:01.155Z,101396.02
2023-02-12T16:46:34.272Z,101391.21
2023-02-12T16:49:03.068Z,101396.77
2023-02-12T16:51:35.603Z,101394.02
2023-02-12T16:54:04.939Z,101399.34
2023-02-12T16:56:37.896Z,101397.27
2023-02-12T16:59:06.296Z,101396.05
2023-02-12T17:01:35.970Z,101402.27
2023-02-12T17:04:07.372Z,101409.69
2023-02-12T17:06:35.551Z,101413.83
2023-02-12T17:09:05.661Z,101410.39
2023-02-12T17:11:34.213Z,101417.48
2023-02-12T17:14:02.958Z,101419.07
2023-02-12T17:16:32.346Z,101423.41
2023-02-12T17:19:06.882Z,101428.26
2023-02-12T17:21:39.674Z,101425.02
2023-02-12T17:24:22.815Z,101435.56
2023-02-12T17:26:51.757Z,101437.83
2023-02-12T17:29:22.664Z,101439.59
2023-02-12T17:31:54.105Z,101445.82
2023-02-12T17:34:23.038Z,101445.52
2023-02-12T17:36:51.758Z,101457.44
2023-02-12T17:39:19.958Z,101453.52
2023-02-12T17:41:48.484Z,101458.05
2023-02-12T17:44:16.738Z,101464.15
2023-02-12T17:46:45.555Z,101465.28
2023-02-12T17:49:16.822Z,101469.66
2023-02-12T17:51:45.177Z,101464.92
2023-02-12T17:54:16.218Z,101468.63
2023-02-12T17:56:47.299Z,101470.08
2023-02-12T17:59:15.634Z,101474.96
2023-02-12T18:01:45.876Z,101478.63
2023-02-12T18:04:14.251Z,101481.09
2023-02-12T18:06:43.130Z,101478.87
2023-02-12T18:09:11.615Z,101484.74
2023-02-12T18:11:42.498Z,101487.87
2023-02-12T18:14:11.340Z,101493.76
2023-02-12T18:16:42.626Z,101492.05
2023-02-12T18:19:10.713Z,101498.61
2023-02-12T18:21:39.185Z,101500.00
2023-02-12T18:24:08.570Z,101499.01
2023-02-12T18:26:36.820Z,101501.11
2023-02-12T18:29:05.252Z,101499.75
2023-02-12T18:31:36.964Z,101502.73
2023-02-12T18:34:06.034Z,101506.36
2023-02-12T18:36:35.145Z,101502.45
2023-02-12T18:39:03.733Z,101504.90
2023-02-12T18:41:39.904Z,101505.44
2023-02-12T18:44:08.172Z,101508.76
2023-02-12T18:46:36.455Z,101515.16
2023-02-12T18:49:06.121Z,101516.57
2023-02-12T18:51:37.403Z,101520.58
2023-02-12T18:54:07.601Z,101523.23
2023-02-12T18:56:38.127Z,101523.66
2023-02-12T18:59:07.738Z,101528.05
2023-02-12T19:01:36.525Z,101531.93
2023-02-12T19:04:06.892Z,101541.66
2023-02-12T19:06:41.203Z,101544.69
2023-02-12T19:09:11.402Z,101544.41
2023-02-12T19:11:41.544Z,101547.60
2023-02-12T19:14:09.818Z,101551.12
2023-02-12T19:16:42.086Z,101547.38
2023-02-12T19:19:10.997Z,101545.86
2023-02-12T19:21:39.773Z,101550.41
2023-02-12T19:24:10.073Z,101547.38
2023-02-12T19:26:38.574Z,101548.98
2023-02-12T19:29:07.059Z,101546.45
2023-02-12T19:31:37.481Z,101554.77
2023-02-12T19:34:07.209Z,101556.35
2023-02-12T19:36:36.704Z,101555.52
2023-02-12T19:39:06.174Z,101562.28
2023-02-12T19:41:41.162Z,101566.81
2023-02-12T19:44:11.571Z,101565.84
2023-02-12T19:46:40.973Z,101570.50
2023-02-12T19:49:14.210Z,101570.71
2023-02-12T19:51:42.648Z,101577.80
2023-02-12T19:54:11.982Z,101574.91
2023-02-12T19:56:40.637Z,101579.92
2023-02-12T19:59:09.350Z,101582.02
2023-02-12T20:01:37.735Z,101581.38
2023-02-12T20:04:06.535Z,101584.00
2023-02-12T20:06:36.320Z,101586.97
2023-02-12T20:09:06.217Z,101594.23
2023-02-12T20:11:37.545Z,101594.77
2023-02-12T20:14:07.746Z,101595.84
2023-02-12T20:16:38.243Z,101595.52
2023-02-12T20:19:18.378Z,101599.66
2023-02-12T20:21:49.212Z,101596.60
2023-02-12T20:24:18.105Z,101599.20
2023-02-12T20:26:46.685Z,101603.00
2023-02-12T20:29:14.974Z,101599.77
2023-02-12T20:31:45.835Z,101600.30
2023-02-12T20:34:15.786Z,101600.85
2023-02-12T20:36:48.244Z,101605.68
2023-02-12T20:39:18.529Z,101607.08
2023-02-12T20:41:46.999Z,101601.95
2023-02-12T20:44:17.463Z,101605.91
2023-02-12T20:46:46.833Z,101609.03
2023-02-12T20:49:16.253Z,101603.02
2023-02-12T20:51:45.130Z,101609.05
2023-02-12T20:54:13.708Z,101614.39
2023-02-12T20:56:42.212Z,101615.61
2023-02-12T20:59:10.552Z,101616.30
2023-02-12T21:01:40.561Z,101616.13
2023-02-12T21:04:11.099Z,101615.45
2023-02-12T21:06:40.412Z,101616.48
2023-02-12T21:09:09.931Z,101620.63
2023-02-12T21:11:42.272Z,101622.52
2023-02-12T21:14:21.836Z,101624.93
2023-02-12T21:16:51.848Z,101623.39
2023-02-12T21:19:20.052Z,101627.01
2023-02-12T21:21:48.521Z,101626.48
2023-02-12T21:24:21.802Z,101627.52
2023-02-12T21:26:51.573Z,101632.01
2023-02-12T21:29:20.919Z,101629.77
2023-02-12T21:31:50.762Z,101634.59
2023-02-12T21:34:21.220Z,101640.27
2023-02-12T21:36:49.735Z,101639.94
2023-02-12T21:39:27.465Z,101640.11
2023-02-12T21:42:02.568Z,101643.05
2023-02-12T21:44:32.996Z,101643.05
2023-02-12T21:47:01.725Z,101650.61
2023-02-12T21:49:31.086Z,101652.67
2023-02-12T21:52:02.466Z,101656.11
2023-02-12T21:54:31.571Z,101656.47
2023-02-12T21:56:59.907Z,101656.81
2023-02-12T21:59:31.438Z,101658.88
2023-02-12T22:02:00.943Z,101656.30
2023-02-12T22:05:08.571Z,101655.09
2023-02-12T22:07:36.129Z,101656.46
2023-02-12T22:10:07.608Z,101659.56
2023-02-12T22:12:35.754Z,101655.61
2023-02-12T22:15:02.431Z,101657.34
2023-02-12T22:17:31.616Z,101659.55
2023-02-12T22:19:59.045Z,101655.27
2023-02-12T22:22:26.313Z,101657.00
2023-02-12T22:24:53.244Z,101658.20
2023-02-12T22:27:20.445Z,101656.48
2023-02-12T22:29:47.345Z,101657.50
2023-02-12T22:32:18.777Z,101659.05
2023-02-12T22:34:45.741Z,101656.82
2023-02-12T22:37:12.886Z,101655.96
2023-02-12T22:39:39.944Z,101655.45
2023-02-12T22:42:07.081Z,101651.69
2023-02-12T22:44:36.089Z,101650.14
2023-02-12T22:47:03.432Z,101650.48
2023-02-12T22:49:31.238Z,101644.98
2023-02-12T22:51:58.147Z,101648.27
2023-02-12T22:54:25.188Z,101646.89
2023-02-12T22:56:52.166Z,101650.84
2023-02-12T22:59:19.084Z,101659.09
2023-02-12T23:01:46.920Z,101662.52
2023-02-12T23:04:16.094Z,101662.00
2023-02-12T23:06:43.193Z,101662.67
2023-02-12T23:09:12.535Z,101660.45
2023-02-12T23:11:40.263Z,101661.48
2023-02-12T23:14:11.524Z,101666.45
2023-02-12T23:16:38.602Z,101665.93
2023-02-12T23:19:06.351Z,101670.23
2023-02-12T23:21:33.582Z,101673.82
2023-02-12T23:24:00.698Z,101677.25
2023-02-12T23:26:29.132Z,101679.81
2023-02-12T23:28:56.277Z,101675.02
2023-02-12T23:31:23.818Z,101676.38
2023-02-12T23:33:51.231Z,101670.88
2023-02-12T23:36:18.146Z,101667.98
2023-02-12T23:38:45.293Z,101669.34
2023-02-12T23:41:12.269Z,101666.77
2023-02-12T23:43:38.984Z,101667.61
2023-02-12T23:46:05.862Z,101673.29
2023-02-12T23:48:34.101Z,101679.63
2023-02-12T23:51:00.924Z,101680.99
2023-02-12T23:53:27.700Z,101686.31
2023-02-12T23:55:54.537Z,101686.48
2023-02-12T23:58:21.718Z,101684.59
